AMX27LB MMPR-MMAN
Flight info
| Callsign | AMX27LB |
|---|---|
| Flight time | 1h 0m |
| Altitude | 33000 |
| Route | XUDED1A XUDED UT148 OTEKA UT1 KATLA J29 MTY DCT |
| Aircraft | B38M/M-SDE1FGHILORVWXY/HB1 |
Departure
| Time | 2026-05-08 12:59 |
|---|---|
| Airport | Puerto Vallarta International Airport (MMPR) |
Arrival
| Time | 2026-05-08 13:59 |
|---|---|
| Airport | Del Norte International Airport (MMAN) |
| Time | Latitude | Longitude | Altitude | Speed | Heading |
|---|---|---|---|---|---|
| 2026-05-08 12:49 | 20.67979 | -105.24728 | 31 ft | 1 kts | 47° |
| 2026-05-08 12:49 | 20.67967 | -105.24742 | 31 ft | 4 kts | 47° |
| 2026-05-08 12:49 | 20.67948 | -105.24761 | 31 ft | 4 kts | 25° |
| 2026-05-08 12:49 | 20.67926 | -105.24762 | 31 ft | 4 kts | 330° |
| 2026-05-08 12:50 | 20.67915 | -105.24754 | 31 ft | 1 kts | 317° |
| 2026-05-08 12:53 | 20.67916 | -105.24754 | 31 ft | 1 kts | 317° |
| 2026-05-08 12:53 | 20.67922 | -105.24761 | 31 ft | 2 kts | 317° |
| 2026-05-08 12:53 | 20.67935 | -105.24773 | 31 ft | 3 kts | 317° |
| 2026-05-08 12:54 | 20.67959 | -105.24797 | 31 ft | 6 kts | 317° |
| 2026-05-08 12:54 | 20.67991 | -105.24845 | 31 ft | 10 kts | 285° |
| 2026-05-08 12:54 | 20.67984 | -105.24919 | 31 ft | 10 kts | 289° |
| 2026-05-08 12:54 | 20.68037 | -105.24985 | 31 ft | 14 kts | 316° |
| 2026-05-08 12:55 | 20.68078 | -105.25070 | 31 ft | 12 kts | 245° |
| 2026-05-08 12:55 | 20.68016 | -105.25150 | 31 ft | 16 kts | 226° |
| 2026-05-08 12:55 | 20.67933 | -105.25246 | 31 ft | 19 kts | 227° |
| 2026-05-08 12:55 | 20.67832 | -105.25362 | 32 ft | 23 kts | 227° |
| 2026-05-08 12:56 | 20.67714 | -105.25496 | 31 ft | 27 kts | 227° |
| 2026-05-08 12:56 | 20.67579 | -105.25651 | 31 ft | 30 kts | 227° |
| 2026-05-08 12:56 | 20.67429 | -105.25824 | 31 ft | 33 kts | 227° |
| 2026-05-08 12:56 | 20.67265 | -105.26013 | 31 ft | 36 kts | 227° |
| 2026-05-08 12:57 | 20.67085 | -105.26218 | 32 ft | 39 kts | 227° |
| 2026-05-08 12:57 | 20.66977 | -105.26412 | 32 ft | 23 kts | 297° |
| 2026-05-08 12:57 | 20.67074 | -105.26488 | 34 ft | 4 kts | 22° |
| 2026-05-08 12:57 | 20.67093 | -105.26469 | 34 ft | 2 kts | 46° |
| 2026-05-08 12:58 | 20.67094 | -105.26468 | 34 ft | 0 kts | 46° |
| 2026-05-08 12:58 | 20.67124 | -105.26434 | 33 ft | 28 kts | 46° |
| 2026-05-08 12:59 | 20.67444 | -105.26066 | 32 ft | 105 kts | 47° |
| 2026-05-08 12:59 | 20.68102 | -105.25310 | 33 ft | 170 kts | 47° |
| 2026-05-08 12:59 | 20.68992 | -105.24292 | 419 ft | 193 kts | 46° |
| 2026-05-08 12:59 | 20.69907 | -105.23200 | 1153 ft | 202 kts | 50° |
| 2026-05-08 13:00 | 20.70831 | -105.22043 | 1963 ft | 205 kts | 50° |
| 2026-05-08 13:00 | 20.71746 | -105.20900 | 2937 ft | 200 kts | 49° |
| 2026-05-08 13:00 | 20.72663 | -105.19795 | 3782 ft | 197 kts | 47° |
| 2026-05-08 13:00 | 20.73597 | -105.18685 | 4376 ft | 206 kts | 48° |
| 2026-05-08 13:01 | 20.74577 | -105.17535 | 4890 ft | 218 kts | 46° |
| 2026-05-08 13:01 | 20.75667 | -105.16285 | 5213 ft | 235 kts | 45° |
| 2026-05-08 13:01 | 20.76790 | -105.15042 | 6010 ft | 238 kts | 44° |
| 2026-05-08 13:01 | 20.77942 | -105.13763 | 6770 ft | 240 kts | 45° |
| 2026-05-08 13:02 | 20.79106 | -105.12440 | 7418 ft | 248 kts | 45° |
| 2026-05-08 13:02 | 20.80292 | -105.11081 | 8128 ft | 251 kts | 45° |
| 2026-05-08 13:02 | 20.81517 | -105.09694 | 8687 ft | 262 kts | 42° |
| 2026-05-08 13:02 | 20.82892 | -105.08426 | 9377 ft | 265 kts | 36° |
| 2026-05-08 13:03 | 20.84412 | -105.07191 | 9777 ft | 283 kts | 36° |
| 2026-05-08 13:03 | 20.86026 | -105.05863 | 10123 ft | 301 kts | 37° |
| 2026-05-08 13:03 | 20.87705 | -105.04466 | 10414 ft | 320 kts | 37° |
| 2026-05-08 13:03 | 20.89515 | -105.02950 | 10666 ft | 340 kts | 37° |
| 2026-05-08 13:04 | 20.91430 | -105.01339 | 10868 ft | 360 kts | 38° |
| 2026-05-08 13:04 | 20.93450 | -104.99637 | 11042 ft | 379 kts | 38° |
| 2026-05-08 13:04 | 20.95559 | -104.97858 | 11281 ft | 393 kts | 38° |
| 2026-05-08 13:04 | 20.97738 | -104.96018 | 11710 ft | 400 kts | 38° |
| 2026-05-08 13:05 | 20.99899 | -104.94193 | 12248 ft | 403 kts | 38° |
| 2026-05-08 13:05 | 21.02115 | -104.92323 | 12778 ft | 407 kts | 39° |
| 2026-05-08 13:05 | 21.04352 | -104.90432 | 13259 ft | 412 kts | 39° |
| 2026-05-08 13:05 | 21.06609 | -104.88524 | 13756 ft | 415 kts | 39° |
| 2026-05-08 13:06 | 21.08887 | -104.86598 | 14206 ft | 418 kts | 39° |
| 2026-05-08 13:06 | 21.11185 | -104.84655 | 14696 ft | 420 kts | 39° |
| 2026-05-08 13:06 | 21.13483 | -104.82710 | 15167 ft | 423 kts | 39° |
| 2026-05-08 13:06 | 21.15800 | -104.80748 | 15576 ft | 426 kts | 39° |
| 2026-05-08 13:07 | 21.18109 | -104.78793 | 16025 ft | 429 kts | 39° |
| 2026-05-08 13:07 | 21.20459 | -104.76801 | 16458 ft | 431 kts | 39° |
| 2026-05-08 13:07 | 21.22820 | -104.74799 | 16885 ft | 433 kts | 39° |
| 2026-05-08 13:07 | 21.25192 | -104.72788 | 17318 ft | 435 kts | 38° |
| 2026-05-08 13:08 | 21.27580 | -104.70761 | 17728 ft | 438 kts | 38° |
| 2026-05-08 13:08 | 21.29970 | -104.68733 | 18125 ft | 440 kts | 38° |
| 2026-05-08 13:08 | 21.32377 | -104.66689 | 18472 ft | 442 kts | 38° |
| 2026-05-08 13:08 | 21.34764 | -104.64661 | 18767 ft | 445 kts | 38° |
| 2026-05-08 13:09 | 21.37195 | -104.62595 | 19059 ft | 447 kts | 38° |
| 2026-05-08 13:09 | 21.39638 | -104.60518 | 19349 ft | 450 kts | 38° |
| 2026-05-08 13:09 | 21.42105 | -104.58420 | 19623 ft | 452 kts | 38° |
| 2026-05-08 13:09 | 21.44577 | -104.56315 | 19898 ft | 455 kts | 38° |
| 2026-05-08 13:10 | 21.47072 | -104.54192 | 20176 ft | 457 kts | 38° |
| 2026-05-08 13:10 | 21.49573 | -104.52061 | 20453 ft | 460 kts | 38° |
| 2026-05-08 13:10 | 21.52054 | -104.49947 | 20699 ft | 463 kts | 38° |
| 2026-05-08 13:10 | 21.54587 | -104.47787 | 20975 ft | 465 kts | 38° |
| 2026-05-08 13:11 | 21.57125 | -104.45622 | 21240 ft | 468 kts | 38° |
| 2026-05-08 13:11 | 21.59681 | -104.43442 | 21525 ft | 470 kts | 38° |
| 2026-05-08 13:11 | 21.62248 | -104.41250 | 21787 ft | 472 kts | 38° |
| 2026-05-08 13:11 | 21.64828 | -104.39046 | 22040 ft | 475 kts | 38° |
| 2026-05-08 13:12 | 21.67420 | -104.36831 | 22279 ft | 477 kts | 38° |
| 2026-05-08 13:12 | 21.70031 | -104.34599 | 22539 ft | 479 kts | 38° |
| 2026-05-08 13:12 | 21.72617 | -104.32386 | 22779 ft | 481 kts | 38° |
| 2026-05-08 13:12 | 21.75255 | -104.30129 | 23020 ft | 484 kts | 38° |
| 2026-05-08 13:13 | 21.77893 | -104.27871 | 23269 ft | 486 kts | 38° |
| 2026-05-08 13:13 | 21.80549 | -104.25596 | 23511 ft | 488 kts | 38° |
| 2026-05-08 13:13 | 21.83208 | -104.23317 | 23716 ft | 490 kts | 38° |
| 2026-05-08 13:13 | 21.85892 | -104.21016 | 23888 ft | 494 kts | 37° |
| 2026-05-08 13:14 | 21.88583 | -104.18707 | 24077 ft | 495 kts | 37° |
| 2026-05-08 13:14 | 21.91249 | -104.16419 | 24280 ft | 497 kts | 37° |
| 2026-05-08 13:14 | 21.93955 | -104.14095 | 24475 ft | 498 kts | 37° |
| 2026-05-08 13:14 | 21.96672 | -104.11761 | 24672 ft | 500 kts | 37° |
| 2026-05-08 13:15 | 21.99395 | -104.09421 | 24904 ft | 501 kts | 37° |
| 2026-05-08 13:15 | 22.02127 | -104.07071 | 25084 ft | 504 kts | 37° |
| 2026-05-08 13:15 | 22.04875 | -104.04706 | 25266 ft | 505 kts | 37° |
| 2026-05-08 13:15 | 22.07627 | -104.02337 | 25475 ft | 506 kts | 37° |
| 2026-05-08 13:16 | 22.10384 | -103.99962 | 25662 ft | 508 kts | 37° |
| 2026-05-08 13:16 | 22.12217 | -103.98383 | 25800 ft | 509 kts | 37° |
| 2026-05-08 13:16 | 22.15900 | -103.95207 | 26040 ft | 511 kts | 37° |
| 2026-05-08 13:16 | 22.17784 | -103.93582 | 26183 ft | 512 kts | 37° |
| 2026-05-08 13:17 | 22.20540 | -103.91205 | 26333 ft | 515 kts | 37° |
| 2026-05-08 13:17 | 22.23347 | -103.88780 | 26489 ft | 517 kts | 37° |
| 2026-05-08 13:17 | 22.26152 | -103.86358 | 26691 ft | 518 kts | 37° |
| 2026-05-08 13:17 | 22.28969 | -103.83922 | 26862 ft | 519 kts | 37° |
| 2026-05-08 13:18 | 22.31791 | -103.81482 | 27052 ft | 520 kts | 37° |
| 2026-05-08 13:18 | 22.34623 | -103.79031 | 27172 ft | 523 kts | 37° |
| 2026-05-08 13:18 | 22.37462 | -103.76574 | 27365 ft | 523 kts | 37° |
| 2026-05-08 13:18 | 22.40293 | -103.74121 | 27525 ft | 525 kts | 37° |
| 2026-05-08 13:19 | 22.43148 | -103.71647 | 27697 ft | 526 kts | 37° |
| 2026-05-08 13:19 | 22.46010 | -103.69166 | 27876 ft | 527 kts | 37° |
| 2026-05-08 13:19 | 22.48877 | -103.66678 | 28045 ft | 529 kts | 37° |
| 2026-05-08 13:19 | 22.51747 | -103.64186 | 28254 ft | 529 kts | 37° |
| 2026-05-08 13:20 | 22.54621 | -103.61691 | 28475 ft | 530 kts | 36° |
| 2026-05-08 13:20 | 22.57503 | -103.59186 | 28675 ft | 531 kts | 36° |
| 2026-05-08 13:20 | 22.60385 | -103.56680 | 28931 ft | 531 kts | 36° |
| 2026-05-08 13:20 | 22.63263 | -103.54176 | 29169 ft | 531 kts | 36° |
| 2026-05-08 13:21 | 22.66105 | -103.51702 | 29434 ft | 530 kts | 36° |
| 2026-05-08 13:21 | 22.68985 | -103.49194 | 29700 ft | 530 kts | 36° |
| 2026-05-08 13:21 | 22.71867 | -103.46682 | 29936 ft | 531 kts | 36° |
| 2026-05-08 13:21 | 22.74749 | -103.44170 | 30171 ft | 530 kts | 36° |
| 2026-05-08 13:22 | 22.77623 | -103.41662 | 30382 ft | 530 kts | 36° |
| 2026-05-08 13:22 | 22.80494 | -103.39156 | 30601 ft | 530 kts | 36° |
| 2026-05-08 13:22 | 22.83364 | -103.36648 | 30813 ft | 530 kts | 36° |
| 2026-05-08 13:22 | 22.86191 | -103.34178 | 31039 ft | 530 kts | 36° |
| 2026-05-08 13:23 | 22.89077 | -103.31655 | 31203 ft | 532 kts | 36° |
| 2026-05-08 13:23 | 22.91964 | -103.29130 | 31377 ft | 533 kts | 36° |
| 2026-05-08 13:23 | 22.94855 | -103.26599 | 31590 ft | 533 kts | 36° |
| 2026-05-08 13:23 | 22.97744 | -103.24068 | 31813 ft | 533 kts | 36° |
| 2026-05-08 13:24 | 23.00630 | -103.21539 | 32018 ft | 533 kts | 36° |
| 2026-05-08 13:24 | 23.03515 | -103.19009 | 32229 ft | 533 kts | 36° |
| 2026-05-08 13:24 | 23.06408 | -103.16471 | 32446 ft | 533 kts | 36° |
| 2026-05-08 13:24 | 23.09294 | -103.13938 | 32660 ft | 533 kts | 36° |
| 2026-05-08 13:25 | 23.12178 | -103.11404 | 32869 ft | 532 kts | 36° |
| 2026-05-08 13:25 | 23.15020 | -103.08907 | 33059 ft | 532 kts | 36° |
| 2026-05-08 13:25 | 23.20774 | -103.03846 | 33051 ft | 530 kts | 36° |
| 2026-05-08 13:26 | 23.26527 | -102.98780 | 33043 ft | 534 kts | 36° |
| 2026-05-08 13:26 | 23.32301 | -102.93689 | 33044 ft | 534 kts | 36° |
| 2026-05-08 13:27 | 23.38074 | -102.88594 | 33037 ft | 534 kts | 36° |
| 2026-05-08 13:27 | 23.43841 | -102.83498 | 33038 ft | 534 kts | 36° |
| 2026-05-08 13:28 | 23.49612 | -102.78393 | 33037 ft | 534 kts | 36° |
| 2026-05-08 13:28 | 23.55375 | -102.73289 | 33046 ft | 533 kts | 36° |
| 2026-05-08 13:29 | 23.61113 | -102.68201 | 33034 ft | 536 kts | 37° |
| 2026-05-08 13:29 | 23.66902 | -102.63061 | 33031 ft | 536 kts | 37° |
| 2026-05-08 13:30 | 23.72678 | -102.57927 | 33036 ft | 536 kts | 37° |
| 2026-05-08 13:30 | 23.78460 | -102.52782 | 33033 ft | 536 kts | 37° |
| 2026-05-08 13:31 | 23.84206 | -102.47663 | 33031 ft | 536 kts | 37° |
| 2026-05-08 13:31 | 23.89978 | -102.42515 | 33035 ft | 537 kts | 36° |
| 2026-05-08 13:32 | 23.95739 | -102.37370 | 33027 ft | 537 kts | 37° |
| 2026-05-08 13:32 | 24.01515 | -102.32205 | 33023 ft | 537 kts | 37° |
| 2026-05-08 13:33 | 24.07294 | -102.27033 | 33024 ft | 537 kts | 37° |
| 2026-05-08 13:33 | 24.13060 | -102.21865 | 33019 ft | 536 kts | 37° |
| 2026-05-08 13:34 | 24.18823 | -102.16693 | 33026 ft | 537 kts | 37° |
| 2026-05-08 13:34 | 24.24605 | -102.11499 | 33023 ft | 537 kts | 37° |
| 2026-05-08 13:35 | 24.30339 | -102.06341 | 33024 ft | 537 kts | 37° |
| 2026-05-08 13:35 | 24.36111 | -102.01143 | 33036 ft | 535 kts | 37° |
| 2026-05-08 13:36 | 24.41860 | -101.95959 | 33035 ft | 533 kts | 37° |
| 2026-05-08 13:36 | 24.47565 | -101.90808 | 33027 ft | 533 kts | 37° |
| 2026-05-08 13:37 | 24.53268 | -101.85655 | 33043 ft | 534 kts | 37° |
| 2026-05-08 13:37 | 24.59022 | -101.80447 | 33046 ft | 538 kts | 37° |
| 2026-05-08 13:38 | 24.64807 | -101.75205 | 33043 ft | 538 kts | 37° |
| 2026-05-08 13:38 | 24.70580 | -101.69968 | 33043 ft | 538 kts | 37° |
| 2026-05-08 13:39 | 24.76339 | -101.64737 | 33046 ft | 536 kts | 37° |
| 2026-05-08 13:39 | 24.82086 | -101.59510 | 33041 ft | 535 kts | 37° |
| 2026-05-08 13:40 | 24.87792 | -101.54313 | 33052 ft | 536 kts | 37° |
| 2026-05-08 13:40 | 24.93561 | -101.49054 | 32982 ft | 540 kts | 37° |
| 2026-05-08 13:41 | 24.96450 | -101.46417 | 32767 ft | 538 kts | 37° |
| 2026-05-08 13:41 | 24.99339 | -101.43779 | 32493 ft | 537 kts | 37° |
| 2026-05-08 13:41 | 25.02207 | -101.41159 | 32219 ft | 537 kts | 37° |
| 2026-05-08 13:41 | 25.05085 | -101.38528 | 31952 ft | 537 kts | 37° |
| 2026-05-08 13:42 | 25.07955 | -101.35901 | 31478 ft | 534 kts | 37° |
| 2026-05-08 13:42 | 25.10839 | -101.33262 | 30345 ft | 543 kts | 37° |
| 2026-05-08 13:42 | 25.13759 | -101.30586 | 29460 ft | 544 kts | 37° |
| 2026-05-08 13:42 | 25.16656 | -101.27929 | 28815 ft | 538 kts | 38° |
| 2026-05-08 13:43 | 25.19552 | -101.25274 | 27582 ft | 545 kts | 38° |
| 2026-05-08 13:43 | 25.22410 | -101.22652 | 26903 ft | 540 kts | 37° |
| 2026-05-08 13:43 | 25.25311 | -101.19987 | 25745 ft | 546 kts | 38° |
| 2026-05-08 13:43 | 25.28228 | -101.17306 | 25004 ft | 543 kts | 38° |
| 2026-05-08 13:44 | 25.31109 | -101.14657 | 24437 ft | 536 kts | 38° |
| 2026-05-08 13:44 | 25.33954 | -101.12039 | 23943 ft | 529 kts | 38° |
| 2026-05-08 13:44 | 25.36767 | -101.09449 | 23413 ft | 523 kts | 38° |
| 2026-05-08 13:44 | 25.39543 | -101.06892 | 22831 ft | 516 kts | 38° |
| 2026-05-08 13:45 | 25.42283 | -101.04365 | 22255 ft | 510 kts | 38° |
| 2026-05-08 13:45 | 25.44993 | -101.01864 | 21658 ft | 505 kts | 38° |
| 2026-05-08 13:45 | 25.47675 | -100.99390 | 21108 ft | 499 kts | 38° |
| 2026-05-08 13:45 | 25.50331 | -100.96936 | 20538 ft | 495 kts | 38° |
| 2026-05-08 13:46 | 25.52834 | -100.94337 | 19986 ft | 492 kts | 48° |
| 2026-05-08 13:46 | 25.54730 | -100.91210 | 19501 ft | 487 kts | 64° |
| 2026-05-08 13:46 | 25.55941 | -100.87736 | 18919 ft | 483 kts | 72° |
| 2026-05-08 13:46 | 25.56991 | -100.84200 | 18406 ft | 479 kts | 73° |
| 2026-05-08 13:47 | 25.57983 | -100.80751 | 17874 ft | 474 kts | 73° |
| 2026-05-08 13:47 | 25.58960 | -100.77279 | 17306 ft | 470 kts | 73° |
| 2026-05-08 13:47 | 25.59919 | -100.73830 | 16792 ft | 466 kts | 73° |
| 2026-05-08 13:47 | 25.60861 | -100.70422 | 16235 ft | 461 kts | 74° |
| 2026-05-08 13:48 | 25.61797 | -100.67032 | 15705 ft | 457 kts | 73° |
| 2026-05-08 13:48 | 25.62727 | -100.63657 | 15210 ft | 453 kts | 73° |
| 2026-05-08 13:48 | 25.63642 | -100.60334 | 14742 ft | 449 kts | 72° |
| 2026-05-08 13:48 | 25.64546 | -100.57047 | 14326 ft | 442 kts | 73° |
| 2026-05-08 13:49 | 25.65439 | -100.53802 | 13933 ft | 436 kts | 73° |
| 2026-05-08 13:49 | 25.66305 | -100.50652 | 13569 ft | 430 kts | 72° |
| 2026-05-08 13:49 | 25.67168 | -100.47503 | 13118 ft | 424 kts | 72° |
| 2026-05-08 13:49 | 25.68020 | -100.44392 | 12738 ft | 418 kts | 72° |
| 2026-05-08 13:50 | 25.68859 | -100.41328 | 12371 ft | 411 kts | 72° |
| 2026-05-08 13:50 | 25.69683 | -100.38320 | 12121 ft | 403 kts | 72° |
| 2026-05-08 13:50 | 25.70487 | -100.35378 | 11884 ft | 394 kts | 72° |
| 2026-05-08 13:50 | 25.71274 | -100.32498 | 11681 ft | 385 kts | 72° |
| 2026-05-08 13:51 | 25.72041 | -100.29688 | 11519 ft | 375 kts | 72° |
| 2026-05-08 13:51 | 25.72788 | -100.26948 | 11354 ft | 366 kts | 72° |
| 2026-05-08 13:51 | 25.73504 | -100.24318 | 11201 ft | 356 kts | 72° |
| 2026-05-08 13:51 | 25.74209 | -100.21730 | 11057 ft | 347 kts | 72° |
| 2026-05-08 13:52 | 25.74894 | -100.19212 | 10922 ft | 337 kts | 72° |
| 2026-05-08 13:52 | 25.75561 | -100.16758 | 10795 ft | 328 kts | 72° |
| 2026-05-08 13:52 | 25.76211 | -100.14368 | 10677 ft | 318 kts | 72° |
| 2026-05-08 13:52 | 25.76966 | -100.12110 | 10550 ft | 307 kts | 57° |
| 2026-05-08 13:53 | 25.78364 | -100.10418 | 10415 ft | 294 kts | 32° |
| 2026-05-08 13:53 | 25.80211 | -100.09503 | 10090 ft | 291 kts | 14° |
| 2026-05-08 13:53 | 25.82150 | -100.08865 | 9760 ft | 290 kts | 16° |
| 2026-05-08 13:53 | 25.84083 | -100.08226 | 9414 ft | 289 kts | 15° |
| 2026-05-08 13:54 | 25.86012 | -100.07595 | 9103 ft | 287 kts | 15° |
| 2026-05-08 13:54 | 25.87905 | -100.06981 | 8711 ft | 287 kts | 15° |
| 2026-05-08 13:54 | 25.89821 | -100.06363 | 8300 ft | 287 kts | 14° |
| 2026-05-08 13:54 | 25.91783 | -100.06213 | 7904 ft | 283 kts | 346° |
| 2026-05-08 13:55 | 25.93550 | -100.07070 | 7578 ft | 273 kts | 330° |
| 2026-05-08 13:55 | 25.95192 | -100.08055 | 7359 ft | 263 kts | 328° |
| 2026-05-08 13:55 | 25.97995 | -100.10365 | 6972 ft | 240 kts | 314° |
| 2026-05-08 13:56 | 25.99032 | -100.11739 | 6764 ft | 227 kts | 292° |
| 2026-05-08 13:56 | 25.99323 | -100.13402 | 6426 ft | 217 kts | 261° |
| 2026-05-08 13:56 | 25.98899 | -100.14981 | 5875 ft | 214 kts | 245° |
| 2026-05-08 13:56 | 25.98123 | -100.16366 | 5280 ft | 209 kts | 217° |
| 2026-05-08 13:57 | 25.96859 | -100.17010 | 4855 ft | 195 kts | 197° |
| 2026-05-08 13:57 | 25.95607 | -100.17480 | 4502 ft | 192 kts | 204° |
| 2026-05-08 13:57 | 25.94471 | -100.18184 | 4238 ft | 182 kts | 211° |
| 2026-05-08 13:57 | 25.93422 | -100.18926 | 4087 ft | 177 kts | 211° |
| 2026-05-08 13:58 | 25.92391 | -100.19648 | 3962 ft | 173 kts | 211° |
| 2026-05-08 13:58 | 25.91376 | -100.20346 | 3559 ft | 172 kts | 211° |
| 2026-05-08 13:58 | 25.90353 | -100.21066 | 3023 ft | 175 kts | 213° |
| 2026-05-08 13:58 | 25.89333 | -100.21794 | 2512 ft | 172 kts | 212° |
| 2026-05-08 13:59 | 25.88306 | -100.22488 | 1933 ft | 174 kts | 212° |
| 2026-05-08 13:59 | 25.87322 | -100.23179 | 1615 ft | 161 kts | 213° |
| 2026-05-08 13:59 | 25.86444 | -100.23806 | 1477 ft | 123 kts | 212° |
| 2026-05-08 13:59 | 25.86109 | -100.24059 | 1478 ft | 18 kts | 243° |
| 2026-05-08 14:00 | 25.86100 | -100.24138 | 1482 ft | 10 kts | 260° |
| 2026-05-08 14:00 | 25.86085 | -100.24218 | 1483 ft | 11 kts | 257° |
| 2026-05-08 14:00 | 25.86063 | -100.24300 | 1484 ft | 11 kts | 236° |
| 2026-05-08 14:00 | 25.86002 | -100.24352 | 1481 ft | 12 kts | 213° |
| 2026-05-08 14:01 | 25.85928 | -100.24391 | 1484 ft | 12 kts | 184° |
| 2026-05-08 14:01 | 25.85839 | -100.24394 | 1482 ft | 13 kts | 181° |
| 2026-05-08 14:01 | 25.85742 | -100.24398 | 1480 ft | 15 kts | 182° |
| 2026-05-08 14:01 | 25.85670 | -100.24360 | 1482 ft | 9 kts | 96° |
| 2026-05-08 14:02 | 25.85690 | -100.24324 | 1485 ft | 5 kts | 34° |
| 2026-05-08 14:02 | 25.85722 | -100.24302 | 1480 ft | 13 kts | 30° |
| 2026-05-08 14:02 | 25.85841 | -100.24223 | 1487 ft | 26 kts | 32° |
| 2026-05-08 14:02 | 25.86012 | -100.24103 | 1476 ft | 30 kts | 32° |
| 2026-05-08 14:03 | 25.86053 | -100.23951 | 1482 ft | 13 kts | 123° |
| 2026-05-08 14:03 | 25.86047 | -100.23941 | 1482 ft | 2 kts | 116° |
| 2026-05-08 14:03 | 25.86046 | -100.23912 | 1484 ft | 5 kts | 71° |
| 2026-05-08 14:03 | 25.86069 | -100.23887 | 1482 ft | 2 kts | 33° |
| 2026-05-08 14:04 | 25.86070 | -100.23886 | 1482 ft | 0 kts | 33° |